Detroit, Michigan
Traffic Map
Current Weather Conditions
Detroit, Michigan
Few Clouds
Few Clouds
64°
Feels Like: 64°
Wind Chill: 64° Ceiling: Unl
Heat Index: 64° Visibility: 15mi
Dew Point: 50° Wind: 8mph
Humidity: 59% Direction: 350° (N)
Pressure: 29.98in Gusts: 0mph
Raw Report DataCYQG 240400Z 35007KT 15SM FEW098 18/10 A2998 RMK AC1 SLP152 DENSITY ALT 1100FT
Traffic Incident Summary
Active as of:
Severity:
Category:
InformationThere was an issue retrieving the traffic information for this location. Please try a different location or try again shortly.
Advertisements